Scottsville, NY

11:41 PM EDT on July 04, 2015 (GMT -0400)
Dansville Municipal | | Change Station
CLOSE
Current Station
Airport
Location: Dansville,
Elevation: 659 ft
Nearby Weather Stations

Elev 659 ft 42.57 °N, 77.71 °W | Updated 47 minutes ago

Clear
Clear
61 °F
Feels Like 61 °F
N
0
Wind Variable Wind from North

Today
High -- | Low -- °F
--% Chance of Precip.
Yesterday
High -- | Low -- °F
Precip. -- in
5:37 AM 8:53 PM
Waning Gibbous, 88% visible
Pressure 30.06 in
Visibility 8.0 miles
Clouds Clear
Dew Point 57 °F
Humidity 87%
Rainfall 0.00 in
Snow Depth Not available.
UV 0 out of 12
Pollen 2.20 out of 12
Air Quality Not available.
Flu Activity Not available.
METAR KDSV 050254Z AUTO 00000KT 8SM CLR 16/14 A3004 RMK AO2 SLP179 T01610139 53020

More Conditions Fewer Conditions

Pressure 30.06 in
Visibility 8.0 miles
Clouds Clear
Dew Point 57 °F
Humidity 87%
Rainfall 0.00 in
Snow Depth Not available.
UV 0 out of 12
Pollen 2.20 out of 12
Air Quality Not available.
Flu Activity Not available.
METAR KDSV 050254Z AUTO 00000KT 8SM CLR 16/14 A3004 RMK AO2 SLP179 T01610139 53020

More Conditions Fewer Conditions

10-Day Weather Forecast

×

Almanac

Astronomy

Jul. 04, 2015 Rise Set
Actual Time
Civil Twilight
Nautical Twilight
Astronomical Twilight
Moon
Length of Visible Light
Length of Day
Tomorrow will be .
, % of the Moon is Illuminated

Today's Extremes

State Highs State Lows

Community

WunderPhotos

Upload Photos

1,835,193 photos uploaded!

WunderBlogs® & News

Nearby

Air Quality

  Air Quality AQ Index Pollutant
Not available.

Snow Depth

Station Depth Elevation

Earthquake Activity

City Distance Mag. Time & Date
Minimum magnitude displayed is 2.5.

Coastal Water Temperatures

Place Temperature

Stations

Nearby Weather Stations

Station Location Temp. Windchill Dew Point Humidity Wind Precip. Elev Updated Type